Hlavní strana
METAR-TAF:

METAR-TAF

Letiště :

Damašek, Sýrie

zeměpisná šířka: 33-25N, zeměpisná délka: 036-31E, výška: 608 m

Aktuální stav počasí

Zpráva byla vytvořena před 8 minutami, v 07:00 UTC
Severovýchodní vítr 4 kt
Teplota 3°C
Vlhkost vzduchu 56%
Tlak 1023 hPa
Viditelnost 10 km a více
Žádná oblačnost pod 1500 m, nevyskytují se cumulonimby.

METAR: OSDI 240700Z 04004KT CAVOK 03/M05 Q1023

Čas: 09:08 (07:08 UTC)

Předpověď počasí

Předpověď platná od 24 v 00 UTC do 25 v 06 UTC
vítr z různých směrů 3 kt
Viditelnost 10 km a více
Žádná oblačnost pod 1500 m, nevyskytují se cumulonimby.
Dočasný
od 24 v 12 UTC do 24 v 18 UTC
Východoseverovýchodní vítr 10 kt
Viditelnost 10 km a více
Skoro jasno ve výšce 3000 ft

TAF: OSDI 2400/2506 VRB03KT CAVOK TEMPO 2412/2418 07010KT 9999 FEW030

Stav a předpovědi počasí z více než 4 000 letišť (zprávy METAR a TAF).

Červené a žluté tečky na mapě představují dostupné meteorologické stanice.

Když kurzor umístíte na tečku, zobrazí se název stanice.

Pak kliknutím zobrazíte stav a předpověď počasí.

Chcete-li změnit mapu, kliknutím na zelené tlačítko se znaménkem +mapu přiblížíte, kliknutím na zelené tlačítko se znaménkem – mapu oddálíte a kliknutím na zelené šipky přejdete na sousední mapy.


METAR-TAF: